sensor_id;sensor_type;location;lat;lon;timestamp;P1;durP1;ratioP1;P2;durP2;ratioP2
47912;SDS011;33676;51.006;17.180;2022-08-25T00:00:20;37.60;;;32.10;;
47912;SDS011;33676;51.006;17.180;2022-08-25T00:03:04;34.80;;;31.20;;
47912;SDS011;33676;51.006;17.180;2022-08-25T00:05:32;33.60;;;30.20;;
47912;SDS011;33676;51.006;17.180;2022-08-25T00:08:01;35.90;;;31.40;;
47912;SDS011;33676;51.006;17.180;2022-08-25T00:10:35;33.10;;;29.80;;
47912;SDS011;33676;51.006;17.180;2022-08-25T00:13:06;32.40;;;29.10;;
47912;SDS011;33676;51.006;17.180;2022-08-25T00:15:36;32.60;;;29.20;;
47912;SDS011;33676;51.006;17.180;2022-08-25T00:18:05;36.80;;;32.90;;
47912;SDS011;33676;51.006;17.180;2022-08-25T00:20:47;40.70;;;36.50;;
47912;SDS011;33676;51.006;17.180;2022-08-25T00:23:17;43.60;;;34.50;;
47912;SDS011;33676;51.006;17.180;2022-08-25T00:25:47;39.40;;;35.40;;
47912;SDS011;33676;51.006;17.180;2022-08-25T00:28:16;37.00;;;33.10;;
47912;SDS011;33676;51.006;17.180;2022-08-25T00:30:45;35.50;;;31.60;;
47912;SDS011;33676;51.006;17.180;2022-08-25T00:33:14;38.40;;;31.00;;
47912;SDS011;33676;51.006;17.180;2022-08-25T00:35:43;35.80;;;32.20;;
47912;SDS011;33676;51.006;17.180;2022-08-25T00:38:12;37.30;;;33.40;;
47912;SDS011;33676;51.006;17.180;2022-08-25T00:40:41;34.90;;;31.30;;
47912;SDS011;33676;51.006;17.180;2022-08-25T00:43:11;32.20;;;28.80;;
47912;SDS011;33676;51.006;17.180;2022-08-25T00:45:40;32.20;;;28.70;;
47912;SDS011;33676;51.006;17.180;2022-08-25T00:48:08;32.50;;;28.20;;
47912;SDS011;33676;51.006;17.180;2022-08-25T00:50:37;31.60;;;28.40;;
47912;SDS011;33676;51.006;17.180;2022-08-25T00:53:05;33.00;;;29.70;;
47912;SDS011;33676;51.006;17.180;2022-08-25T00:55:37;34.60;;;31.10;;
47912;SDS011;33676;51.006;17.180;2022-08-25T00:58:19;33.40;;;29.80;;
47912;SDS011;33676;51.006;17.180;2022-08-25T01:00:54;33.00;;;29.60;;
47912;SDS011;33676;51.006;17.180;2022-08-25T01:03:27;31.90;;;28.60;;
47912;SDS011;33676;51.006;17.180;2022-08-25T01:06:01;32.50;;;28.60;;
47912;SDS011;33676;51.006;17.180;2022-08-25T01:08:32;33.30;;;30.00;;
47912;SDS011;33676;51.006;17.180;2022-08-25T01:11:03;31.70;;;27.80;;
47912;SDS011;33676;51.006;17.180;2022-08-25T01:13:48;32.00;;;28.60;;
47912;SDS011;33676;51.006;17.180;2022-08-25T01:16:20;30.90;;;27.80;;
47912;SDS011;33676;51.006;17.180;2022-08-25T01:18:55;32.60;;;29.50;;
47912;SDS011;33676;51.006;17.180;2022-08-25T01:21:26;36.10;;;29.20;;
47912;SDS011;33676;51.006;17.180;2022-08-25T01:23:58;32.20;;;29.00;;
47912;SDS011;33676;51.006;17.180;2022-08-25T01:26:30;33.50;;;30.00;;
47912;SDS011;33676;51.006;17.180;2022-08-25T01:29:06;31.70;;;28.30;;
47912;SDS011;33676;51.006;17.180;2022-08-25T01:31:56;35.60;;;30.10;;
47912;SDS011;33676;51.006;17.180;2022-08-25T01:34:30;32.70;;;28.10;;
47912;SDS011;33676;51.006;17.180;2022-08-25T01:37:01;32.60;;;29.50;;
47912;SDS011;33676;51.006;17.180;2022-08-25T01:39:31;34.00;;;30.30;;
47912;SDS011;33676;51.006;17.180;2022-08-25T01:42:27;34.10;;;30.70;;
47912;SDS011;33676;51.006;17.180;2022-08-25T01:45:06;34.20;;;30.30;;
47912;SDS011;33676;51.006;17.180;2022-08-25T01:47:36;35.10;;;31.40;;
47912;SDS011;33676;51.006;17.180;2022-08-25T01:50:05;34.50;;;30.80;;
47912;SDS011;33676;51.006;17.180;2022-08-25T01:52:46;35.00;;;31.40;;
47912;SDS011;33676;51.006;17.180;2022-08-25T01:55:21;34.00;;;30.40;;
47912;SDS011;33676;51.006;17.180;2022-08-25T01:57:50;33.90;;;30.40;;
47912;SDS011;33676;51.006;17.180;2022-08-25T02:00:20;37.10;;;30.20;;
47912;SDS011;33676;51.006;17.180;2022-08-25T02:02:49;37.20;;;31.60;;
47912;SDS011;33676;51.006;17.180;2022-08-25T02:05:22;34.80;;;30.90;;
47912;SDS011;33676;51.006;17.180;2022-08-25T02:07:51;37.20;;;33.20;;
47912;SDS011;33676;51.006;17.180;2022-08-25T02:10:19;35.30;;;31.60;;
47912;SDS011;33676;51.006;17.180;2022-08-25T02:12:50;39.00;;;31.70;;
47912;SDS011;33676;51.006;17.180;2022-08-25T02:15:21;37.40;;;33.30;;
47912;SDS011;33676;51.006;17.180;2022-08-25T02:17:49;37.60;;;33.60;;
47912;SDS011;33676;51.006;17.180;2022-08-25T02:20:18;37.60;;;33.80;;
47912;SDS011;33676;51.006;17.180;2022-08-25T02:22:46;40.50;;;34.40;;
47912;SDS011;33676;51.006;17.180;2022-08-25T02:25:24;37.10;;;33.10;;
47912;SDS011;33676;51.006;17.180;2022-08-25T02:27:53;38.80;;;32.20;;
47912;SDS011;33676;51.006;17.180;2022-08-25T02:30:21;38.40;;;34.30;;
47912;SDS011;33676;51.006;17.180;2022-08-25T02:32:50;37.60;;;33.40;;
47912;SDS011;33676;51.006;17.180;2022-08-25T02:35:19;38.80;;;34.30;;
47912;SDS011;33676;51.006;17.180;2022-08-25T02:37:49;37.80;;;32.50;;
47912;SDS011;33676;51.006;17.180;2022-08-25T02:40:21;43.10;;;34.10;;
47912;SDS011;33676;51.006;17.180;2022-08-25T02:42:50;41.80;;;32.20;;
47912;SDS011;33676;51.006;17.180;2022-08-25T02:45:18;36.70;;;32.10;;
47912;SDS011;33676;51.006;17.180;2022-08-25T02:47:47;41.60;;;35.90;;
47912;SDS011;33676;51.006;17.180;2022-08-25T02:50:15;36.30;;;32.40;;
47912;SDS011;33676;51.006;17.180;2022-08-25T02:52:43;34.40;;;30.90;;
47912;SDS011;33676;51.006;17.180;2022-08-25T02:55:12;36.00;;;32.10;;
47912;SDS011;33676;51.006;17.180;2022-08-25T02:57:41;34.40;;;30.60;;
47912;SDS011;33676;51.006;17.180;2022-08-25T03:00:11;33.40;;;30.10;;
47912;SDS011;33676;51.006;17.180;2022-08-25T03:02:42;36.80;;;31.70;;
47912;SDS011;33676;51.006;17.180;2022-08-25T03:05:11;33.60;;;30.00;;
47912;SDS011;33676;51.006;17.180;2022-08-25T03:07:42;33.00;;;29.40;;
47912;SDS011;33676;51.006;17.180;2022-08-25T03:10:15;32.40;;;29.00;;
47912;SDS011;33676;51.006;17.180;2022-08-25T03:12:45;32.00;;;28.20;;
47912;SDS011;33676;51.006;17.180;2022-08-25T03:15:15;30.10;;;26.80;;
47912;SDS011;33676;51.006;17.180;2022-08-25T03:17:45;29.60;;;26.40;;
47912;SDS011;33676;51.006;17.180;2022-08-25T03:20:17;30.90;;;26.50;;
47912;SDS011;33676;51.006;17.180;2022-08-25T03:22:46;54.60;;;29.70;;
47912;SDS011;33676;51.006;17.180;2022-08-25T03:25:16;31.30;;;28.00;;
47912;SDS011;33676;51.006;17.180;2022-08-25T03:28:06;33.60;;;29.30;;
47912;SDS011;33676;51.006;17.180;2022-08-25T03:30:35;46.20;;;28.00;;
47912;SDS011;33676;51.006;17.180;2022-08-25T03:33:03;57.60;;;27.30;;
47912;SDS011;33676;51.006;17.180;2022-08-25T03:35:32;68.80;;;26.80;;
47912;SDS011;33676;51.006;17.180;2022-08-25T03:38:00;42.40;;;24.70;;
47912;SDS011;33676;51.006;17.180;2022-08-25T03:40:29;35.10;;;25.10;;
47912;SDS011;33676;51.006;17.180;2022-08-25T03:42:58;30.80;;;27.00;;
47912;SDS011;33676;51.006;17.180;2022-08-25T03:45:26;35.30;;;28.40;;
47912;SDS011;33676;51.006;17.180;2022-08-25T03:47:55;33.50;;;27.30;;
47912;SDS011;33676;51.006;17.180;2022-08-25T03:50:23;35.70;;;27.50;;
47912;SDS011;33676;51.006;17.180;2022-08-25T03:52:53;33.30;;;29.50;;
47912;SDS011;33676;51.006;17.180;2022-08-25T03:55:24;38.80;;;29.40;;
47912;SDS011;33676;51.006;17.180;2022-08-25T03:57:54;36.60;;;28.70;;
47912;SDS011;33676;51.006;17.180;2022-08-25T04:00:22;52.60;;;27.20;;
47912;SDS011;33676;51.006;17.180;2022-08-25T04:02:51;36.90;;;27.40;;
47912;SDS011;33676;51.006;17.180;2022-08-25T04:05:19;37.50;;;27.50;;
47912;SDS011;33676;51.006;17.180;2022-08-25T04:07:48;39.50;;;24.50;;
47912;SDS011;33676;51.006;17.180;2022-08-25T04:10:16;33.60;;;24.50;;
47912;SDS011;33676;51.006;17.180;2022-08-25T04:12:45;56.50;;;26.90;;
47912;SDS011;33676;51.006;17.180;2022-08-25T04:15:14;54.60;;;27.40;;
47912;SDS011;33676;51.006;17.180;2022-08-25T04:17:43;67.60;;;25.80;;
47912;SDS011;33676;51.006;17.180;2022-08-25T04:20:12;102.70;;;28.40;;
47912;SDS011;33676;51.006;17.180;2022-08-25T04:22:41;76.60;;;27.10;;
47912;SDS011;33676;51.006;17.180;2022-08-25T04:25:12;55.80;;;25.50;;
47912;SDS011;33676;51.006;17.180;2022-08-25T04:27:41;59.90;;;25.10;;
47912;SDS011;33676;51.006;17.180;2022-08-25T04:30:10;69.80;;;26.10;;
47912;SDS011;33676;51.006;17.180;2022-08-25T04:32:39;73.50;;;24.60;;
47912;SDS011;33676;51.006;17.180;2022-08-25T04:35:07;59.40;;;24.00;;
47912;SDS011;33676;51.006;17.180;2022-08-25T04:37:36;58.70;;;23.40;;
47912;SDS011;33676;51.006;17.180;2022-08-25T04:40:05;53.50;;;23.30;;
47912;SDS011;33676;51.006;17.180;2022-08-25T04:42:34;38.10;;;23.30;;
47912;SDS011;33676;51.006;17.180;2022-08-25T04:45:03;43.70;;;24.80;;
47912;SDS011;33676;51.006;17.180;2022-08-25T04:47:37;40.90;;;24.40;;
47912;SDS011;33676;51.006;17.180;2022-08-25T04:50:07;45.20;;;23.80;;
47912;SDS011;33676;51.006;17.180;2022-08-25T04:52:35;38.40;;;24.90;;
47912;SDS011;33676;51.006;17.180;2022-08-25T04:55:04;51.70;;;22.60;;
47912;SDS011;33676;51.006;17.180;2022-08-25T04:57:33;44.10;;;24.90;;
47912;SDS011;33676;51.006;17.180;2022-08-25T05:00:03;65.80;;;24.50;;
47912;SDS011;33676;51.006;17.180;2022-08-25T05:02:32;58.20;;;25.70;;
47912;SDS011;33676;51.006;17.180;2022-08-25T05:05:00;62.70;;;24.40;;
47912;SDS011;33676;51.006;17.180;2022-08-25T05:07:31;59.20;;;22.30;;
47912;SDS011;33676;51.006;17.180;2022-08-25T05:09:59;53.20;;;22.00;;
47912;SDS011;33676;51.006;17.180;2022-08-25T05:12:28;54.10;;;22.00;;
47912;SDS011;33676;51.006;17.180;2022-08-25T05:14:59;42.80;;;22.20;;
47912;SDS011;33676;51.006;17.180;2022-08-25T05:17:48;39.50;;;21.10;;
47912;SDS011;33676;51.006;17.180;2022-08-25T05:20:23;51.00;;;21.50;;
47912;SDS011;33676;51.006;17.180;2022-08-25T05:22:51;67.80;;;23.10;;
47912;SDS011;33676;51.006;17.180;2022-08-25T05:25:20;48.60;;;21.90;;
47912;SDS011;33676;51.006;17.180;2022-08-25T05:27:49;49.50;;;20.80;;
47912;SDS011;33676;51.006;17.180;2022-08-25T05:30:17;48.60;;;20.10;;
47912;SDS011;33676;51.006;17.180;2022-08-25T05:32:46;49.90;;;22.50;;
47912;SDS011;33676;51.006;17.180;2022-08-25T05:35:14;43.80;;;22.40;;
47912;SDS011;33676;51.006;17.180;2022-08-25T05:37:43;53.60;;;21.70;;
47912;SDS011;33676;51.006;17.180;2022-08-25T05:40:12;53.90;;;20.80;;
47912;SDS011;33676;51.006;17.180;2022-08-25T05:42:40;51.10;;;20.00;;
47912;SDS011;33676;51.006;17.180;2022-08-25T05:45:09;45.70;;;21.10;;
47912;SDS011;33676;51.006;17.180;2022-08-25T05:50:12;49.80;;;21.90;;
47912;SDS011;33676;51.006;17.180;2022-08-25T05:52:41;41.40;;;21.70;;
47912;SDS011;33676;51.006;17.180;2022-08-25T05:55:09;37.80;;;22.90;;
47912;SDS011;33676;51.006;17.180;2022-08-25T05:57:38;41.90;;;22.50;;
47912;SDS011;33676;51.006;17.180;2022-08-25T06:00:07;39.10;;;22.60;;
47912;SDS011;33676;51.006;17.180;2022-08-25T06:02:38;44.30;;;23.10;;
47912;SDS011;33676;51.006;17.180;2022-08-25T06:05:20;36.40;;;22.60;;
47912;SDS011;33676;51.006;17.180;2022-08-25T06:07:50;43.60;;;22.70;;
47912;SDS011;33676;51.006;17.180;2022-08-25T06:10:19;31.70;;;22.30;;
47912;SDS011;33676;51.006;17.180;2022-08-25T06:12:49;25.70;;;22.20;;
47912;SDS011;33676;51.006;17.180;2022-08-25T06:15:21;24.80;;;22.60;;
47912;SDS011;33676;51.006;17.180;2022-08-25T06:17:51;24.90;;;22.30;;
47912;SDS011;33676;51.006;17.180;2022-08-25T06:20:28;28.30;;;23.10;;
47912;SDS011;33676;51.006;17.180;2022-08-25T06:22:58;25.50;;;20.90;;
47912;SDS011;33676;51.006;17.180;2022-08-25T06:25:27;26.80;;;21.10;;
47912;SDS011;33676;51.006;17.180;2022-08-25T06:27:59;23.40;;;20.80;;
47912;SDS011;33676;51.006;17.180;2022-08-25T06:30:28;24.10;;;20.70;;
47912;SDS011;33676;51.006;17.180;2022-08-25T06:32:57;23.70;;;21.10;;
47912;SDS011;33676;51.006;17.180;2022-08-25T06:35:25;30.30;;;24.00;;
47912;SDS011;33676;51.006;17.180;2022-08-25T06:37:55;23.40;;;20.90;;
47912;SDS011;33676;51.006;17.180;2022-08-25T06:40:23;21.40;;;19.60;;
47912;SDS011;33676;51.006;17.180;2022-08-25T06:42:53;20.50;;;18.80;;
47912;SDS011;33676;51.006;17.180;2022-08-25T06:45:21;24.20;;;21.60;;
47912;SDS011;33676;51.006;17.180;2022-08-25T06:47:50;23.90;;;21.00;;
47912;SDS011;33676;51.006;17.180;2022-08-25T06:50:20;25.30;;;23.00;;
47912;SDS011;33676;51.006;17.180;2022-08-25T06:52:48;25.00;;;21.60;;
47912;SDS011;33676;51.006;17.180;2022-08-25T06:55:18;23.20;;;21.00;;
47912;SDS011;33676;51.006;17.180;2022-08-25T06:57:47;23.60;;;21.30;;
47912;SDS011;33676;51.006;17.180;2022-08-25T07:00:16;23.20;;;21.00;;
47912;SDS011;33676;51.006;17.180;2022-08-25T07:02:44;23.80;;;21.70;;
47912;SDS011;33676;51.006;17.180;2022-08-25T07:05:14;21.50;;;19.80;;
47912;SDS011;33676;51.006;17.180;2022-08-25T07:08:00;23.00;;;20.70;;
47912;SDS011;33676;51.006;17.180;2022-08-25T07:10:29;22.40;;;20.50;;
47912;SDS011;33676;51.006;17.180;2022-08-25T07:12:58;21.70;;;19.80;;
47912;SDS011;33676;51.006;17.180;2022-08-25T07:15:27;22.60;;;20.60;;
47912;SDS011;33676;51.006;17.180;2022-08-25T07:17:56;21.10;;;19.30;;
47912;SDS011;33676;51.006;17.180;2022-08-25T07:20:25;22.10;;;19.00;;
47912;SDS011;33676;51.006;17.180;2022-08-25T07:22:58;21.60;;;19.60;;
47912;SDS011;33676;51.006;17.180;2022-08-25T07:25:27;21.50;;;19.70;;
47912;SDS011;33676;51.006;17.180;2022-08-25T07:27:56;19.90;;;18.20;;
47912;SDS011;33676;51.006;17.180;2022-08-25T07:30:26;18.10;;;16.70;;
47912;SDS011;33676;51.006;17.180;2022-08-25T07:32:55;17.00;;;15.40;;
47912;SDS011;33676;51.006;17.180;2022-08-25T07:35:23;16.10;;;14.90;;
47912;SDS011;33676;51.006;17.180;2022-08-25T07:38:06;18.30;;;16.60;;
47912;SDS011;33676;51.006;17.180;2022-08-25T07:40:44;15.40;;;14.30;;
47912;SDS011;33676;51.006;17.180;2022-08-25T07:43:21;14.80;;;13.70;;
47912;SDS011;33676;51.006;17.180;2022-08-25T07:45:49;14.20;;;13.10;;
47912;SDS011;33676;51.006;17.180;2022-08-25T07:48:19;16.10;;;14.80;;
47912;SDS011;33676;51.006;17.180;2022-08-25T07:50:50;14.00;;;12.70;;
47912;SDS011;33676;51.006;17.180;2022-08-25T07:53:20;13.90;;;12.90;;
47912;SDS011;33676;51.006;17.180;2022-08-25T07:55:49;14.00;;;12.40;;
47912;SDS011;33676;51.006;17.180;2022-08-25T07:58:20;14.20;;;13.10;;
47912;SDS011;33676;51.006;17.180;2022-08-25T08:00:49;12.90;;;12.00;;
47912;SDS011;33676;51.006;17.180;2022-08-25T08:03:26;13.60;;;12.40;;
47912;SDS011;33676;51.006;17.180;2022-08-25T08:06:20;17.70;;;15.80;;
47912;SDS011;33676;51.006;17.180;2022-08-25T08:08:52;14.50;;;13.40;;
47912;SDS011;33676;51.006;17.180;2022-08-25T08:11:28;16.20;;;14.70;;
47912;SDS011;33676;51.006;17.180;2022-08-25T08:14:01;13.00;;;11.90;;
47912;SDS011;33676;51.006;17.180;2022-08-25T08:16:30;11.20;;;10.20;;
47912;SDS011;33676;51.006;17.180;2022-08-25T08:19:00;10.60;;;9.70;;
47912;SDS011;33676;51.006;17.180;2022-08-25T08:21:31;11.70;;;10.70;;
47912;SDS011;33676;51.006;17.180;2022-08-25T08:24:02;11.70;;;10.90;;
47912;SDS011;33676;51.006;17.180;2022-08-25T08:26:41;17.00;;;11.10;;
47912;SDS011;33676;51.006;17.180;2022-08-25T08:29:26;11.80;;;10.80;;
47912;SDS011;33676;51.006;17.180;2022-08-25T08:31:54;10.60;;;9.70;;
47912;SDS011;33676;51.006;17.180;2022-08-25T08:34:23;12.30;;;11.30;;
47912;SDS011;33676;51.006;17.180;2022-08-25T08:36:52;11.30;;;10.30;;
47912;SDS011;33676;51.006;17.180;2022-08-25T08:39:21;12.40;;;11.20;;
47912;SDS011;33676;51.006;17.180;2022-08-25T08:42:00;11.40;;;10.50;;
47912;SDS011;33676;51.006;17.180;2022-08-25T08:45:25;11.80;;;10.70;;
47912;SDS011;33676;51.006;17.180;2022-08-25T08:48:26;10.80;;;9.80;;
47912;SDS011;33676;51.006;17.180;2022-08-25T08:51:12;10.10;;;9.10;;
47912;SDS011;33676;51.006;17.180;2022-08-25T08:54:09;10.70;;;9.80;;
47912;SDS011;33676;51.006;17.180;2022-08-25T08:56:49;11.80;;;10.60;;
47912;SDS011;33676;51.006;17.180;2022-08-25T08:59:33;10.40;;;9.50;;
47912;SDS011;33676;51.006;17.180;2022-08-25T09:02:15;15.60;;;14.00;;
47912;SDS011;33676;51.006;17.180;2022-08-25T09:05:13;11.20;;;10.00;;
47912;SDS011;33676;51.006;17.180;2022-08-25T09:07:49;13.30;;;10.20;;
47912;SDS011;33676;51.006;17.180;2022-08-25T09:10:53;10.20;;;9.10;;
47912;SDS011;33676;51.006;17.180;2022-08-25T09:17:03;9.40;;;7.80;;
47912;SDS011;33676;51.006;17.180;2022-08-25T09:23:09;10.90;;;7.20;;
47912;SDS011;33676;51.006;17.180;2022-08-25T09:26:02;11.20;;;7.70;;
47912;SDS011;33676;51.006;17.180;2022-08-25T09:31:25;9.30;;;7.30;;
47912;SDS011;33676;51.006;17.180;2022-08-25T09:34:02;9.90;;;6.90;;
47912;SDS011;33676;51.006;17.180;2022-08-25T09:36:33;7.80;;;5.80;;
47912;SDS011;33676;51.006;17.180;2022-08-25T09:39:05;8.50;;;6.40;;
47912;SDS011;33676;51.006;17.180;2022-08-25T09:50:00;8.80;;;6.00;;
47912;SDS011;33676;51.006;17.180;2022-08-25T09:52:40;11.80;;;6.10;;
47912;SDS011;33676;51.006;17.180;2022-08-25T10:03:13;7.50;;;6.50;;
47912;SDS011;33676;51.006;17.180;2022-08-25T10:11:14;8.30;;;5.40;;
47912;SDS011;33676;51.006;17.180;2022-08-25T10:17:17;11.00;;;5.90;;
47912;SDS011;33676;51.006;17.180;2022-08-25T10:22:39;11.70;;;6.00;;
47912;SDS011;33676;51.006;17.180;2022-08-25T10:25:12;10.60;;;6.10;;
47912;SDS011;33676;51.006;17.180;2022-08-25T10:36:18;8.80;;;5.70;;
47912;SDS011;33676;51.006;17.180;2022-08-25T10:38:57;13.70;;;11.60;;
47912;SDS011;33676;51.006;17.180;2022-08-25T10:41:54;11.40;;;10.10;;
47912;SDS011;33676;51.006;17.180;2022-08-25T10:47:55;16.20;;;6.30;;
47912;SDS011;33676;51.006;17.180;2022-08-25T10:53:35;10.70;;;5.10;;
47912;SDS011;33676;51.006;17.180;2022-08-25T10:59:23;11.40;;;5.10;;
47912;SDS011;33676;51.006;17.180;2022-08-25T11:02:58;10.40;;;5.00;;
47912;SDS011;33676;51.006;17.180;2022-08-25T11:11:39;11.30;;;5.80;;
47912;SDS011;33676;51.006;17.180;2022-08-25T11:14:10;10.00;;;5.40;;
47912;SDS011;33676;51.006;17.180;2022-08-25T11:16:53;10.30;;;5.30;;
47912;SDS011;33676;51.006;17.180;2022-08-25T11:19:34;10.30;;;5.90;;
47912;SDS011;33676;51.006;17.180;2022-08-25T11:22:25;9.30;;;4.40;;
47912;SDS011;33676;51.006;17.180;2022-08-25T11:25:29;7.60;;;4.90;;
47912;SDS011;33676;51.006;17.180;2022-08-25T11:28:15;12.70;;;5.80;;
47912;SDS011;33676;51.006;17.180;2022-08-25T11:30:53;11.00;;;5.90;;
47912;SDS011;33676;51.006;17.180;2022-08-25T11:33:27;9.90;;;5.10;;
47912;SDS011;33676;51.006;17.180;2022-08-25T11:50:29;11.10;;;5.10;;
47912;SDS011;33676;51.006;17.180;2022-08-25T11:53:26;12.00;;;5.30;;
47912;SDS011;33676;51.006;17.180;2022-08-25T11:56:08;13.60;;;5.70;;
47912;SDS011;33676;51.006;17.180;2022-08-25T12:04:33;13.60;;;5.00;;
47912;SDS011;33676;51.006;17.180;2022-08-25T12:07:18;9.40;;;6.20;;
47912;SDS011;33676;51.006;17.180;2022-08-25T12:12:54;15.80;;;6.00;;
47912;SDS011;33676;51.006;17.180;2022-08-25T12:15:32;14.80;;;5.30;;
47912;SDS011;33676;51.006;17.180;2022-08-25T12:23:37;17.00;;;6.50;;
47912;SDS011;33676;51.006;17.180;2022-08-25T12:29:19;21.70;;;6.50;;
47912;SDS011;33676;51.006;17.180;2022-08-25T12:32:08;18.70;;;6.20;;
47912;SDS011;33676;51.006;17.180;2022-08-25T12:37:59;16.10;;;5.90;;
47912;SDS011;33676;51.006;17.180;2022-08-25T12:43:27;18.40;;;6.50;;
47912;SDS011;33676;51.006;17.180;2022-08-25T12:48:56;15.50;;;6.10;;
47912;SDS011;33676;51.006;17.180;2022-08-25T12:57:12;20.50;;;5.80;;
47912;SDS011;33676;51.006;17.180;2022-08-25T12:59:59;12.70;;;5.90;;
47912;SDS011;33676;51.006;17.180;2022-08-25T13:03:07;21.70;;;6.20;;
47912;SDS011;33676;51.006;17.180;2022-08-25T13:05:51;18.60;;;5.90;;
47912;SDS011;33676;51.006;17.180;2022-08-25T13:08:54;13.00;;;5.50;;
47912;SDS011;33676;51.006;17.180;2022-08-25T13:12:23;16.30;;;6.60;;
47912;SDS011;33676;51.006;17.180;2022-08-25T13:14:58;17.70;;;5.80;;
47912;SDS011;33676;51.006;17.180;2022-08-25T13:17:30;19.80;;;6.30;;
47912;SDS011;33676;51.006;17.180;2022-08-25T13:20:22;17.00;;;7.00;;
47912;SDS011;33676;51.006;17.180;2022-08-25T13:22:58;21.30;;;7.60;;
47912;SDS011;33676;51.006;17.180;2022-08-25T13:25:31;14.30;;;6.50;;
47912;SDS011;33676;51.006;17.180;2022-08-25T13:28:04;11.40;;;6.10;;
47912;SDS011;33676;51.006;17.180;2022-08-25T13:30:38;14.50;;;5.90;;
47912;SDS011;33676;51.006;17.180;2022-08-25T13:33:18;12.80;;;6.10;;
47912;SDS011;33676;51.006;17.180;2022-08-25T13:35:51;12.00;;;5.60;;
47912;SDS011;33676;51.006;17.180;2022-08-25T13:38:43;16.70;;;6.40;;
47912;SDS011;33676;51.006;17.180;2022-08-25T13:41:19;19.90;;;7.30;;
47912;SDS011;33676;51.006;17.180;2022-08-25T13:43:56;20.80;;;6.60;;
47912;SDS011;33676;51.006;17.180;2022-08-25T13:46:28;16.70;;;7.20;;
47912;SDS011;33676;51.006;17.180;2022-08-25T13:49:06;17.00;;;5.90;;
47912;SDS011;33676;51.006;17.180;2022-08-25T13:51:37;11.90;;;5.50;;
47912;SDS011;33676;51.006;17.180;2022-08-25T13:54:27;16.80;;;5.60;;
47912;SDS011;33676;51.006;17.180;2022-08-25T13:57:16;14.20;;;6.20;;
47912;SDS011;33676;51.006;17.180;2022-08-25T13:59:55;16.40;;;6.30;;
47912;SDS011;33676;51.006;17.180;2022-08-25T14:05:35;16.00;;;6.10;;
47912;SDS011;33676;51.006;17.180;2022-08-25T14:08:35;15.50;;;6.20;;
47912;SDS011;33676;51.006;17.180;2022-08-25T14:11:09;14.40;;;6.00;;
47912;SDS011;33676;51.006;17.180;2022-08-25T14:14:00;16.10;;;6.30;;
47912;SDS011;33676;51.006;17.180;2022-08-25T14:16:47;13.10;;;5.40;;
47912;SDS011;33676;51.006;17.180;2022-08-25T14:19:21;11.10;;;5.80;;
47912;SDS011;33676;51.006;17.180;2022-08-25T14:21:51;14.30;;;6.40;;
47912;SDS011;33676;51.006;17.180;2022-08-25T14:24:24;13.80;;;6.00;;
47912;SDS011;33676;51.006;17.180;2022-08-25T14:26:54;17.60;;;6.70;;
47912;SDS011;33676;51.006;17.180;2022-08-25T14:29:22;16.00;;;5.50;;
47912;SDS011;33676;51.006;17.180;2022-08-25T14:34:31;22.00;;;6.70;;
47912;SDS011;33676;51.006;17.180;2022-08-25T14:37:16;14.20;;;6.40;;
47912;SDS011;33676;51.006;17.180;2022-08-25T14:40:07;12.10;;;6.20;;
47912;SDS011;33676;51.006;17.180;2022-08-25T14:42:41;14.70;;;5.40;;
47912;SDS011;33676;51.006;17.180;2022-08-25T14:45:09;15.00;;;5.60;;
47912;SDS011;33676;51.006;17.180;2022-08-25T14:47:38;14.60;;;5.30;;
47912;SDS011;33676;51.006;17.180;2022-08-25T14:50:09;13.90;;;5.80;;
47912;SDS011;33676;51.006;17.180;2022-08-25T14:52:41;11.70;;;6.30;;
47912;SDS011;33676;51.006;17.180;2022-08-25T14:55:11;12.90;;;5.90;;
47912;SDS011;33676;51.006;17.180;2022-08-25T14:57:54;14.50;;;6.60;;
47912;SDS011;33676;51.006;17.180;2022-08-25T15:00:23;14.50;;;5.40;;
47912;SDS011;33676;51.006;17.180;2022-08-25T15:02:52;11.60;;;5.10;;
47912;SDS011;33676;51.006;17.180;2022-08-25T15:05:23;10.20;;;5.70;;
47912;SDS011;33676;51.006;17.180;2022-08-25T15:07:55;11.90;;;6.10;;
47912;SDS011;33676;51.006;17.180;2022-08-25T15:10:43;13.70;;;5.50;;
47912;SDS011;33676;51.006;17.180;2022-08-25T15:13:11;13.20;;;5.80;;
47912;SDS011;33676;51.006;17.180;2022-08-25T15:15:42;16.40;;;7.70;;
47912;SDS011;33676;51.006;17.180;2022-08-25T15:18:20;15.30;;;7.20;;
47912;SDS011;33676;51.006;17.180;2022-08-25T15:20:49;16.60;;;10.50;;
47912;SDS011;33676;51.006;17.180;2022-08-25T15:23:18;15.60;;;7.50;;
47912;SDS011;33676;51.006;17.180;2022-08-25T15:25:48;12.20;;;7.90;;
47912;SDS011;33676;51.006;17.180;2022-08-25T15:28:20;11.60;;;7.00;;
47912;SDS011;33676;51.006;17.180;2022-08-25T15:30:49;14.70;;;7.00;;
47912;SDS011;33676;51.006;17.180;2022-08-25T15:33:18;16.50;;;7.40;;
47912;SDS011;33676;51.006;17.180;2022-08-25T15:35:47;14.50;;;6.00;;
47912;SDS011;33676;51.006;17.180;2022-08-25T15:38:17;15.10;;;8.50;;
47912;SDS011;33676;51.006;17.180;2022-08-25T15:40:45;14.10;;;6.20;;
47912;SDS011;33676;51.006;17.180;2022-08-25T15:43:15;13.50;;;7.10;;
47912;SDS011;33676;51.006;17.180;2022-08-25T15:45:44;12.90;;;5.70;;
47912;SDS011;33676;51.006;17.180;2022-08-25T15:48:13;16.80;;;6.80;;
47912;SDS011;33676;51.006;17.180;2022-08-25T15:50:41;13.60;;;7.40;;
47912;SDS011;33676;51.006;17.180;2022-08-25T15:53:10;22.40;;;8.20;;
47912;SDS011;33676;51.006;17.180;2022-08-25T15:55:41;11.30;;;7.30;;
47912;SDS011;33676;51.006;17.180;2022-08-25T15:58:11;15.70;;;7.70;;
47912;SDS011;33676;51.006;17.180;2022-08-25T16:00:39;15.60;;;6.90;;
47912;SDS011;33676;51.006;17.180;2022-08-25T16:03:09;16.80;;;8.00;;
47912;SDS011;33676;51.006;17.180;2022-08-25T16:05:39;14.30;;;6.30;;
47912;SDS011;33676;51.006;17.180;2022-08-25T16:08:15;11.20;;;6.40;;
47912;SDS011;33676;51.006;17.180;2022-08-25T16:10:46;15.10;;;6.60;;
47912;SDS011;33676;51.006;17.180;2022-08-25T16:13:16;14.60;;;7.30;;
47912;SDS011;33676;51.006;17.180;2022-08-25T16:16:13;20.80;;;6.70;;
47912;SDS011;33676;51.006;17.180;2022-08-25T16:18:46;15.00;;;6.90;;
47912;SDS011;33676;51.006;17.180;2022-08-25T16:21:18;17.60;;;12.40;;
47912;SDS011;33676;51.006;17.180;2022-08-25T16:24:03;18.30;;;11.40;;
47912;SDS011;33676;51.006;17.180;2022-08-25T16:26:37;13.80;;;7.90;;
47912;SDS011;33676;51.006;17.180;2022-08-25T16:29:16;14.40;;;7.80;;
47912;SDS011;33676;51.006;17.180;2022-08-25T16:31:46;14.00;;;6.60;;
47912;SDS011;33676;51.006;17.180;2022-08-25T16:34:22;15.00;;;6.70;;
47912;SDS011;33676;51.006;17.180;2022-08-25T16:36:55;13.00;;;6.90;;
47912;SDS011;33676;51.006;17.180;2022-08-25T16:39:26;15.20;;;8.80;;
47912;SDS011;33676;51.006;17.180;2022-08-25T16:41:54;11.50;;;7.90;;
47912;SDS011;33676;51.006;17.180;2022-08-25T16:44:23;18.20;;;6.80;;
47912;SDS011;33676;51.006;17.180;2022-08-25T16:46:52;15.00;;;7.00;;
47912;SDS011;33676;51.006;17.180;2022-08-25T16:49:22;28.20;;;13.80;;